createdAt,value
2022-08-08T00:00:53.945Z,2.75
2022-08-08T00:03:19.811Z,3.20
2022-08-08T00:06:07.673Z,2.83
2022-08-08T00:08:49.829Z,3.47
2022-08-08T00:11:23.587Z,3.00
2022-08-08T00:14:17.481Z,2.85
2022-08-08T00:17:22.888Z,3.72
2022-08-08T00:20:01.846Z,3.40
2022-08-08T00:22:39.751Z,3.22
2022-08-08T00:25:14.667Z,4.38
2022-08-08T00:27:42.105Z,3.28
2022-08-08T00:30:11.377Z,3.45
2022-08-08T00:32:48.162Z,4.38
2022-08-08T00:35:40.327Z,3.50
2022-08-08T00:38:16.533Z,3.13
2022-08-08T00:41:22.307Z,3.45
2022-08-08T00:44:35.934Z,3.45
2022-08-08T00:47:23.464Z,3.40
2022-08-08T00:50:21.308Z,4.30
2022-08-08T00:53:25.302Z,3.97
2022-08-08T00:56:19.212Z,4.07
2022-08-08T00:59:43.951Z,3.97
2022-08-08T01:03:58.499Z,4.00
2022-08-08T01:05:59.244Z,3.70
2022-08-08T01:08:52.206Z,3.70
2022-08-08T01:12:02.839Z,3.95
2022-08-08T01:14:54.844Z,3.85
2022-08-08T01:17:55.549Z,4.00
2022-08-08T01:20:45.895Z,4.65
2022-08-08T01:24:06.758Z,3.67
2022-08-08T01:26:49.312Z,3.80
2022-08-08T01:29:35.654Z,4.65
2022-08-08T01:32:41.849Z,4.15
2022-08-08T01:35:38.422Z,4.28
2022-08-08T01:38:33.920Z,4.75
2022-08-08T01:41:05.756Z,4.22
2022-08-08T01:43:58.342Z,4.47
2022-08-08T01:46:52.157Z,3.75
2022-08-08T01:49:43.699Z,4.57
2022-08-08T01:54:33.440Z,4.30
2022-08-08T01:56:26.894Z,3.78
2022-08-08T01:58:52.972Z,3.90
2022-08-08T02:01:36.049Z,4.47
2022-08-08T02:04:48.072Z,4.68
2022-08-08T02:08:03.309Z,4.55
2022-08-08T02:10:46.984Z,4.70
2022-08-08T02:13:53.367Z,4.22
2022-08-08T02:16:48.307Z,4.60
2022-08-08T02:19:57.826Z,4.47
2022-08-08T02:22:55.129Z,4.30
2022-08-08T02:25:33.169Z,4.70
2022-08-08T02:28:48.484Z,4.97
2022-08-08T02:31:58.712Z,4.55
2022-08-08T02:34:36.968Z,4.78
2022-08-08T02:37:04.090Z,4.43
2022-08-08T02:40:04.754Z,4.78
2022-08-08T02:44:42.669Z,4.95
2022-08-08T02:46:05.920Z,4.57
2022-08-08T02:49:13.360Z,5.45
2022-08-08T02:51:59.737Z,4.75
2022-08-08T02:54:51.759Z,5.40
2022-08-08T02:57:54.856Z,4.80
2022-08-08T03:00:56.596Z,4.95
2022-08-08T03:05:04.390Z,5.22
2022-08-08T03:07:23.114Z,4.78
2022-08-08T03:10:32.486Z,5.07
2022-08-08T03:15:54.256Z,4.45
2022-08-08T03:16:35.355Z,5.10
2022-08-08T03:19:21.213Z,5.30
2022-08-08T03:21:58.670Z,5.13
2022-08-08T03:24:26.580Z,4.55
2022-08-08T03:27:18.088Z,4.53
2022-08-08T03:29:55.650Z,5.57
2022-08-08T03:32:41.797Z,5.07
2022-08-08T03:35:14.397Z,5.13
2022-08-08T03:38:52.996Z,5.00
2022-08-08T03:40:29.663Z,5.75
2022-08-08T03:42:58.814Z,5.15
2022-08-08T03:46:06.289Z,5.65
2022-08-08T03:49:08.893Z,4.85
2022-08-08T03:51:16.593Z,5.65
2022-08-08T03:53:47.612Z,5.80
2022-08-08T03:56:32.190Z,5.88
2022-08-08T03:58:59.140Z,5.18
2022-08-08T04:02:12.886Z,5.93
2022-08-08T04:04:23.124Z,5.40
2022-08-08T04:07:01.464Z,5.20
2022-08-08T04:09:39.667Z,5.90
2022-08-08T04:12:16.000Z,5.50
2022-08-08T04:14:44.970Z,5.97
2022-08-08T04:17:22.549Z,6.03
2022-08-08T04:19:58.409Z,5.13
2022-08-08T04:22:29.841Z,5.70
2022-08-08T04:24:56.611Z,5.20
2022-08-08T04:28:03.137Z,5.90
2022-08-08T04:30:17.944Z,5.63
2022-08-08T04:32:49.847Z,6.43
2022-08-08T04:35:17.978Z,5.93
2022-08-08T04:37:46.964Z,6.05
2022-08-08T04:40:15.814Z,6.72
2022-08-08T04:42:56.331Z,6.18
2022-08-08T04:45:27.580Z,5.93
2022-08-08T04:47:55.105Z,5.90
2022-08-08T04:50:24.684Z,6.03
2022-08-08T04:53:00.914Z,6.00
2022-08-08T04:58:18.079Z,5.85
2022-08-08T05:00:45.029Z,6.38
2022-08-08T05:03:18.901Z,5.85
2022-08-08T05:06:01.320Z,6.57
2022-08-08T05:08:40.526Z,5.75
2022-08-08T05:11:07.928Z,5.70
2022-08-08T05:13:34.520Z,6.25
2022-08-08T05:16:48.263Z,5.88
2022-08-08T05:18:48.177Z,6.70
2022-08-08T05:21:16.127Z,6.70
2022-08-08T05:23:46.237Z,6.68
2022-08-08T05:26:16.112Z,6.10
2022-08-08T05:28:55.963Z,7.07
2022-08-08T05:32:03.895Z,5.65
2022-08-08T05:34:34.960Z,6.05
2022-08-08T05:37:07.578Z,5.75
2022-08-08T05:39:51.149Z,6.25
2022-08-08T05:42:25.830Z,6.25
2022-08-08T05:44:53.289Z,5.47
2022-08-08T05:47:22.099Z,6.13
2022-08-08T05:49:55.949Z,6.30
2022-08-08T05:52:32.038Z,7.07
2022-08-08T05:55:09.646Z,6.80
2022-08-08T05:58:03.988Z,6.88
2022-08-08T06:00:30.090Z,5.90
2022-08-08T06:03:10.646Z,6.57
2022-08-08T06:06:06.538Z,6.55
2022-08-08T06:08:54.640Z,6.40
2022-08-08T06:11:22.388Z,6.75
2022-08-08T06:13:54.879Z,6.88
2022-08-08T06:16:25.017Z,5.68
2022-08-08T06:18:56.946Z,6.93
2022-08-08T06:21:32.658Z,6.23
2022-08-08T06:24:13.770Z,5.97
2022-08-08T06:27:10.555Z,6.05
2022-08-08T06:29:59.862Z,6.20
2022-08-08T06:32:32.735Z,6.00
2022-08-08T06:36:04.844Z,6.22
2022-08-08T06:37:59.180Z,6.07
2022-08-08T06:40:29.806Z,6.45
2022-08-08T06:43:09.774Z,6.50
2022-08-08T06:45:39.069Z,6.60
2022-08-08T06:48:06.100Z,6.40
2022-08-08T06:50:33.311Z,6.15
2022-08-08T06:53:14.521Z,6.35
2022-08-08T06:56:01.885Z,6.00
2022-08-08T06:58:30.899Z,6.38
2022-08-08T07:01:02.180Z,5.65
2022-08-08T07:04:35.866Z,5.95
2022-08-08T07:06:38.659Z,5.88
2022-08-08T07:09:15.230Z,5.93
2022-08-08T07:11:51.347Z,6.80
2022-08-08T07:14:22.380Z,6.70
2022-08-08T07:17:09.218Z,5.80
2022-08-08T07:19:44.609Z,6.03
2022-08-08T07:22:18.685Z,6.18
2022-08-08T07:24:54.669Z,6.30
2022-08-08T07:27:35.196Z,6.97
2022-08-08T07:30:14.868Z,6.85
2022-08-08T07:32:44.703Z,5.75
2022-08-08T07:35:15.232Z,5.95
2022-08-08T07:38:05.053Z,5.43
2022-08-08T07:40:33.965Z,5.45
2022-08-08T07:43:03.991Z,5.18
2022-08-08T07:45:51.505Z,6.05
2022-08-08T07:48:21.706Z,6.05
2022-08-08T07:53:23.934Z,5.72
2022-08-08T07:56:11.348Z,4.75
2022-08-08T07:58:42.659Z,5.18
2022-08-08T08:01:12.297Z,5.03
2022-08-08T08:03:43.966Z,4.88
2022-08-08T08:06:12.383Z,5.05
2022-08-08T08:08:51.989Z,4.70
2022-08-08T08:11:21.414Z,4.18
2022-08-08T08:14:09.723Z,4.63
2022-08-08T08:16:41.003Z,4.55
2022-08-08T08:19:12.846Z,3.65
2022-08-08T08:21:57.886Z,4.78
2022-08-08T08:24:32.297Z,4.78
2022-08-08T08:26:59.895Z,5.25
2022-08-08T08:29:30.052Z,4.15
2022-08-08T08:31:58.113Z,4.32
2022-08-08T08:34:31.909Z,4.70
2022-08-08T08:36:59.664Z,4.10
2022-08-08T08:40:00.096Z,3.90
2022-08-08T08:42:14.901Z,4.03
2022-08-08T08:44:56.393Z,4.50
2022-08-08T08:47:23.441Z,4.70
2022-08-08T08:49:51.723Z,4.72
2022-08-08T08:52:20.568Z,4.20
2022-08-08T08:54:47.910Z,3.50
2022-08-08T08:57:25.065Z,4.30
2022-08-08T09:00:01.665Z,4.20
2022-08-08T09:02:34.598Z,3.35
2022-08-08T09:05:05.751Z,3.60
2022-08-08T09:07:38.859Z,3.75
2022-08-08T09:10:18.757Z,3.95
2022-08-08T09:12:49.158Z,3.80
2022-08-08T09:15:18.667Z,3.40
2022-08-08T09:18:04.196Z,3.58
2022-08-08T09:22:01.960Z,3.83
2022-08-08T09:23:25.541Z,3.40
2022-08-08T09:26:21.430Z,3.45
2022-08-08T09:28:49.949Z,4.00
2022-08-08T09:31:24.011Z,3.30
2022-08-08T09:34:15.989Z,3.88
2022-08-08T09:36:40.126Z,4.18
2022-08-08T09:39:21.835Z,3.28
2022-08-08T09:42:20.467Z,3.03
2022-08-08T09:44:57.847Z,3.13
2022-08-08T09:48:04.143Z,3.35
2022-08-08T09:50:34.473Z,2.75
2022-08-08T09:53:23.780Z,3.28
2022-08-08T09:56:04.492Z,3.55
2022-08-08T09:58:44.507Z,3.10
2022-08-08T10:01:15.340Z,3.85
2022-08-08T10:04:02.414Z,2.80
2022-08-08T10:06:32.453Z,3.42
2022-08-08T10:08:59.939Z,2.85
2022-08-08T10:12:26.351Z,3.05
2022-08-08T10:14:28.031Z,3.20
2022-08-08T10:17:00.418Z,3.17
2022-08-08T10:19:57.171Z,3.42
2022-08-08T10:22:26.460Z,2.92
2022-08-08T10:25:05.902Z,3.20
2022-08-08T10:27:41.479Z,4.03
2022-08-08T10:30:16.651Z,3.70
2022-08-08T10:32:57.729Z,3.47
2022-08-08T10:36:19.807Z,3.67
2022-08-08T10:38:17.754Z,3.28
2022-08-08T10:40:51.040Z,3.42
2022-08-08T10:43:18.520Z,3.45
2022-08-08T10:45:56.386Z,3.10
2022-08-08T10:48:32.472Z,3.30
2022-08-08T10:51:11.620Z,3.00
2022-08-08T10:53:57.704Z,3.42
2022-08-08T10:56:32.184Z,3.03
2022-08-08T10:59:01.718Z,3.00
2022-08-08T11:01:33.588Z,3.22
2022-08-08T11:04:04.710Z,3.00
2022-08-08T11:06:35.460Z,3.00
2022-08-08T11:09:15.243Z,2.28
2022-08-08T11:12:05.099Z,3.55
2022-08-08T11:14:33.740Z,2.77
2022-08-08T11:17:01.403Z,2.80
2022-08-08T11:19:28.511Z,2.88
2022-08-08T11:21:58.497Z,3.17
2022-08-08T11:24:27.482Z,2.75
2022-08-08T11:26:57.979Z,2.90
2022-08-08T11:29:41.605Z,2.70
2022-08-08T11:32:14.525Z,2.80
2022-08-08T11:35:09.652Z,3.03
2022-08-08T11:38:36.799Z,3.03
2022-08-08T11:40:25.778Z,2.20
2022-08-08T11:42:54.795Z,2.67
2022-08-08T11:45:22.986Z,2.10
2022-08-08T11:50:32.333Z,2.60
2022-08-08T11:53:00.870Z,2.88
2022-08-08T11:55:35.461Z,2.88
2022-08-08T11:58:14.586Z,2.72
2022-08-08T12:00:52.290Z,2.60
2022-08-08T12:03:20.857Z,2.38
2022-08-08T12:05:48.668Z,2.50
2022-08-08T12:08:16.502Z,2.33
2022-08-08T12:10:50.507Z,2.25
2022-08-08T12:13:37.622Z,2.53
2022-08-08T12:16:16.961Z,2.22
2022-08-08T12:18:54.245Z,3.33
2022-08-08T12:21:25.841Z,3.05
2022-08-08T12:26:49.930Z,2.60
2022-08-08T12:29:54.465Z,2.13
2022-08-08T12:32:22.505Z,2.50
2022-08-08T12:37:40.653Z,2.90
2022-08-08T12:40:22.471Z,2.35
2022-08-08T12:42:49.998Z,2.58
2022-08-08T12:45:54.973Z,2.20
2022-08-08T12:48:18.028Z,2.38
2022-08-08T12:50:54.773Z,2.83
2022-08-08T12:53:36.550Z,2.50
2022-08-08T12:56:18.392Z,2.50
2022-08-08T12:58:54.379Z,2.53
2022-08-08T13:01:34.800Z,2.70
2022-08-08T13:04:18.388Z,2.58
2022-08-08T13:07:06.804Z,2.15
2022-08-08T13:10:00.587Z,2.70
2022-08-08T13:12:30.309Z,2.20
2022-08-08T13:14:57.708Z,2.65
2022-08-08T13:18:08.298Z,2.47
2022-08-08T13:20:18.342Z,2.25
2022-08-08T13:22:45.524Z,2.35
2022-08-08T13:25:17.437Z,2.30
2022-08-08T13:27:44.552Z,2.70
2022-08-08T13:30:20.855Z,2.30
2022-08-08T13:32:47.806Z,2.00
2022-08-08T13:35:25.090Z,2.20
2022-08-08T13:38:06.055Z,2.03
2022-08-08T13:40:35.193Z,1.77
2022-08-08T13:43:02.381Z,1.67
2022-08-08T13:45:31.011Z,2.20
2022-08-08T13:48:01.895Z,2.10
2022-08-08T13:50:43.933Z,2.50
2022-08-08T13:53:36.218Z,2.03
2022-08-08T13:56:11.467Z,2.08
2022-08-08T13:58:49.136Z,2.13
2022-08-08T14:01:41.583Z,2.38
2022-08-08T14:04:21.354Z,2.20
2022-08-08T14:06:48.388Z,2.38
2022-08-08T14:09:25.134Z,2.55
2022-08-08T14:12:00.208Z,2.17
2022-08-08T14:14:37.696Z,2.33
2022-08-08T14:17:06.946Z,2.40
2022-08-08T14:19:57.816Z,2.42
2022-08-08T14:22:38.007Z,2.45
2022-08-08T14:25:15.482Z,2.13
2022-08-08T14:27:59.687Z,2.70
2022-08-08T14:30:33.443Z,2.25
2022-08-08T14:33:00.386Z,2.38
2022-08-08T14:35:35.012Z,2.47
2022-08-08T14:38:09.442Z,2.15
2022-08-08T14:40:53.396Z,2.58
2022-08-08T14:44:02.533Z,2.05
2022-08-08T14:46:16.006Z,2.90
2022-08-08T14:51:47.279Z,2.28
2022-08-08T14:54:13.661Z,2.42
2022-08-08T14:56:42.825Z,2.60
2022-08-08T14:59:31.361Z,2.20
2022-08-08T15:02:00.258Z,2.50
2022-08-08T15:04:26.806Z,2.25
2022-08-08T15:06:55.492Z,2.20
2022-08-08T15:09:23.195Z,2.40
2022-08-08T15:11:53.206Z,2.72
2022-08-08T15:14:26.525Z,2.30
2022-08-08T15:16:53.763Z,2.10
2022-08-08T15:19:21.284Z,2.80
2022-08-08T15:21:50.307Z,2.20
2022-08-08T15:24:17.057Z,2.35
2022-08-08T15:26:52.488Z,2.20
2022-08-08T15:29:22.491Z,2.33
2022-08-08T15:32:03.599Z,2.20
2022-08-08T15:34:37.482Z,2.03
2022-08-08T15:37:06.146Z,2.50
2022-08-08T15:39:39.092Z,2.53
2022-08-08T15:42:13.106Z,2.30
2022-08-08T15:44:40.599Z,2.30
2022-08-08T15:47:15.339Z,2.60
2022-08-08T15:49:43.832Z,2.63
2022-08-08T15:52:12.985Z,1.88
2022-08-08T15:54:40.636Z,2.42
2022-08-08T15:57:09.040Z,2.25
2022-08-08T16:00:14.095Z,2.28
2022-08-08T16:02:30.443Z,2.30
2022-08-08T16:04:58.881Z,2.17
2022-08-08T16:07:52.078Z,2.40
2022-08-08T16:13:05.742Z,2.22
2022-08-08T16:13:14.551Z,2.28
2022-08-08T16:15:59.036Z,2.13
2022-08-08T16:18:29.367Z,2.17
2022-08-08T16:20:59.909Z,2.25
2022-08-08T16:23:28.526Z,2.20
2022-08-08T16:26:03.508Z,1.90
2022-08-08T16:28:34.854Z,1.98
2022-08-08T16:31:06.275Z,2.20
2022-08-08T16:33:39.284Z,2.10
2022-08-08T16:36:09.774Z,1.90
2022-08-08T16:38:44.636Z,2.38
2022-08-08T16:41:20.679Z,2.30
2022-08-08T16:43:51.606Z,2.33
2022-08-08T16:46:42.820Z,2.20
2022-08-08T16:49:09.137Z,2.25
2022-08-08T16:55:00.523Z,2.45
2022-08-08T16:55:05.577Z,2.85
2022-08-08T16:57:22.813Z,1.80
2022-08-08T16:59:51.932Z,2.53
2022-08-08T17:02:44.298Z,2.00
2022-08-08T17:05:10.006Z,2.45
2022-08-08T17:10:08.667Z,2.13
2022-08-08T17:12:36.843Z,2.25
2022-08-08T17:15:17.599Z,2.72
2022-08-08T17:18:03.295Z,2.08
2022-08-08T17:20:38.167Z,2.20
2022-08-08T17:23:18.008Z,2.50
2022-08-08T17:25:54.234Z,1.92
2022-08-08T17:28:33.982Z,2.40
2022-08-08T17:31:44.829Z,2.40
2022-08-08T17:34:49.366Z,2.25
2022-08-08T17:37:02.842Z,2.22
2022-08-08T17:40:02.948Z,2.20
2022-08-08T17:42:12.728Z,2.28
2022-08-08T17:44:44.014Z,2.40
2022-08-08T17:47:11.309Z,2.30
2022-08-08T17:49:51.616Z,2.28
2022-08-08T17:52:19.069Z,2.50
2022-08-08T17:54:46.152Z,2.90
2022-08-08T17:57:14.254Z,2.13
2022-08-08T17:59:45.684Z,2.58
2022-08-08T18:02:18.933Z,2.35
2022-08-08T18:04:50.578Z,3.20
2022-08-08T18:08:03.017Z,2.60
2022-08-08T18:10:05.184Z,2.70
2022-08-08T18:12:31.770Z,2.58
2022-08-08T18:14:58.679Z,2.80
2022-08-08T18:18:05.312Z,2.40
2022-08-08T18:20:43.274Z,2.47
2022-08-08T18:23:00.645Z,2.42
2022-08-08T18:25:28.557Z,2.60
2022-08-08T18:28:03.990Z,2.25
2022-08-08T18:30:30.514Z,2.28
2022-08-08T18:32:58.789Z,2.63
2022-08-08T18:35:25.359Z,2.08
2022-08-08T18:38:03.725Z,2.47
2022-08-08T18:40:45.592Z,2.00
2022-08-08T18:43:16.272Z,2.17
2022-08-08T18:46:06.262Z,2.10
2022-08-08T18:48:30.210Z,2.50
2022-08-08T18:50:58.161Z,2.72
2022-08-08T18:53:25.352Z,2.20
2022-08-08T18:56:23.198Z,2.45
2022-08-08T18:58:49.916Z,2.40
2022-08-08T19:02:25.425Z,2.60
2022-08-08T19:04:10.987Z,2.28
2022-08-08T19:06:39.553Z,1.98
2022-08-08T19:09:13.375Z,2.00
2022-08-08T19:11:46.841Z,2.30
2022-08-08T19:14:20.391Z,2.22
2022-08-08T19:16:47.621Z,2.53
2022-08-08T19:19:14.814Z,2.03
2022-08-08T19:21:48.436Z,2.10
2022-08-08T19:24:34.181Z,2.17
2022-08-08T19:27:03.314Z,2.25
2022-08-08T19:29:30.554Z,1.77
2022-08-08T19:31:57.442Z,1.85
2022-08-08T19:34:36.289Z,1.70
2022-08-08T19:37:05.561Z,1.45
2022-08-08T19:39:35.783Z,1.40
2022-08-08T19:42:06.614Z,1.58
2022-08-08T19:44:42.914Z,1.52
2022-08-08T19:47:10.016Z,1.73
2022-08-08T19:49:38.976Z,1.40
2022-08-08T19:52:07.124Z,1.70
2022-08-08T19:54:33.779Z,1.40
2022-08-08T19:57:04.331Z,1.77
2022-08-08T19:59:34.972Z,1.98
2022-08-08T20:02:04.507Z,1.30
2022-08-08T20:04:32.145Z,1.42
2022-08-08T20:07:05.329Z,1.63
2022-08-08T20:09:56.278Z,1.55
2022-08-08T20:12:32.321Z,1.13
2022-08-08T20:17:40.985Z,1.40
2022-08-08T20:20:10.526Z,1.80
2022-08-08T20:22:42.604Z,1.42
2022-08-08T20:25:14.317Z,1.95
2022-08-08T20:27:50.394Z,2.30
2022-08-08T20:30:35.546Z,1.70
2022-08-08T20:33:18.464Z,2.00
2022-08-08T20:35:58.345Z,1.63
2022-08-08T20:38:32.566Z,1.60
2022-08-08T20:40:59.908Z,1.50
2022-08-08T20:43:42.974Z,1.70
2022-08-08T20:46:10.818Z,2.00
2022-08-08T20:48:37.324Z,1.45
2022-08-08T20:51:05.438Z,1.17
2022-08-08T20:56:20.196Z,1.40
2022-08-08T20:59:03.325Z,2.22
2022-08-08T21:01:33.469Z,1.80
2022-08-08T21:04:19.928Z,1.23
2022-08-08T21:06:53.009Z,1.60
2022-08-08T21:09:21.529Z,1.52
2022-08-08T21:11:50.471Z,1.70
2022-08-08T21:14:17.859Z,1.40
2022-08-08T21:16:57.025Z,1.40
2022-08-08T21:19:25.700Z,1.60
2022-08-08T21:22:00.846Z,1.63
2022-08-08T21:24:30.234Z,1.45
2022-08-08T21:26:58.150Z,2.33
2022-08-08T21:30:02.971Z,1.80
2022-08-08T21:32:14.222Z,1.60
2022-08-08T21:34:51.578Z,1.80
2022-08-08T21:37:23.535Z,2.08
2022-08-08T21:40:11.295Z,1.52
2022-08-08T21:42:39.195Z,1.38
2022-08-08T21:45:44.721Z,1.45
2022-08-08T21:50:37.715Z,1.25
2022-08-08T21:54:31.636Z,1.63
2022-08-08T21:56:19.065Z,2.00
2022-08-08T21:58:38.011Z,1.55
2022-08-08T22:01:05.052Z,1.88
2022-08-08T22:03:43.743Z,1.70
2022-08-08T22:06:28.743Z,1.58
2022-08-08T22:08:59.443Z,1.55
2022-08-08T22:11:59.385Z,1.90
2022-08-08T22:14:16.514Z,2.00
2022-08-08T22:16:44.159Z,1.42
2022-08-08T22:19:15.401Z,1.60
2022-08-08T22:21:42.842Z,1.65
2022-08-08T22:24:12.016Z,1.50
2022-08-08T22:27:01.710Z,2.00
2022-08-08T22:29:58.839Z,1.50
2022-08-08T22:32:11.498Z,1.40
2022-08-08T22:34:39.226Z,1.50
2022-08-08T22:37:06.792Z,1.63
2022-08-08T22:39:51.257Z,2.00
2022-08-08T22:42:31.429Z,1.45
2022-08-08T22:44:58.840Z,2.20
2022-08-08T22:47:37.895Z,1.50
2022-08-08T22:50:09.929Z,1.50
2022-08-08T22:52:58.825Z,1.52
2022-08-08T22:58:27.223Z,1.65
2022-08-08T23:00:58.032Z,1.52
2022-08-08T23:03:33.999Z,1.90
2022-08-08T23:06:13.809Z,2.03
2022-08-08T23:08:54.513Z,1.65
2022-08-08T23:11:22.989Z,1.55
2022-08-08T23:14:01.147Z,1.50
2022-08-08T23:16:37.965Z,1.63
2022-08-08T23:19:09.186Z,2.22
2022-08-08T23:21:35.699Z,1.73
2022-08-08T23:24:04.936Z,2.05
2022-08-08T23:26:31.488Z,2.00
2022-08-08T23:28:57.978Z,1.77
2022-08-08T23:31:24.458Z,1.70
2022-08-08T23:34:16.963Z,1.50
2022-08-08T23:36:39.224Z,1.98
2022-08-08T23:39:07.486Z,1.80
2022-08-08T23:41:45.518Z,1.70
2022-08-08T23:44:14.263Z,1.38
2022-08-08T23:49:00.413Z,1.80
2022-08-08T23:49:27.239Z,1.70
2022-08-08T23:52:04.501Z,1.60
2022-08-08T23:54:42.158Z,1.58
2022-08-08T23:57:26.718Z,1.70
